createdAt,value
2023-05-10T00:02:12.352Z,93.10
2023-05-10T00:04:42.112Z,87.65
2023-05-10T00:07:08.982Z,93.22
2023-05-10T00:09:35.822Z,100.78
2023-05-10T00:12:02.732Z,90.65
2023-05-10T00:14:29.833Z,94.65
2023-05-10T00:16:56.771Z,98.60
2023-05-10T00:19:23.727Z,93.78
2023-05-10T00:21:50.677Z,98.82
2023-05-10T00:24:17.666Z,89.85
2023-05-10T00:26:44.689Z,91.75
2023-05-10T00:29:12.286Z,104.05
2023-05-10T00:31:39.284Z,110.65
2023-05-10T00:34:06.155Z,103.28
2023-05-10T00:36:33.265Z,107.50
2023-05-10T00:39:00.935Z,110.03
2023-05-10T00:41:27.913Z,109.50
2023-05-10T00:43:55.480Z,113.40
2023-05-10T00:46:23.027Z,118.50
2023-05-10T00:48:50.323Z,113.10
2023-05-10T00:51:17.466Z,134.63
2023-05-10T00:53:47.234Z,129.38
2023-05-10T00:56:14.310Z,118.47
2023-05-10T00:58:42.127Z,138.90
2023-05-10T01:01:10.409Z,111.43
2023-05-10T01:03:37.978Z,107.05
2023-05-10T01:06:05.188Z,125.90
2023-05-10T01:08:32.438Z,111.03
2023-05-10T01:10:59.687Z,125.32
2023-05-10T01:13:37.240Z,107.38
2023-05-10T01:16:05.225Z,112.13
2023-05-10T01:18:36.204Z,119.03
2023-05-10T01:21:15.130Z,123.40
2023-05-10T01:24:19.886Z,107.55
2023-05-10T01:27:05.567Z,124.65
2023-05-10T01:29:58.329Z,142.38
2023-05-10T01:32:45.734Z,110.72
2023-05-10T01:35:29.513Z,114.30
2023-05-10T01:38:14.233Z,124.32
2023-05-10T01:40:49.631Z,111.70
2023-05-10T01:43:24.088Z,119.68
2023-05-10T01:46:00.715Z,119.65
2023-05-10T01:48:30.242Z,102.25
2023-05-10T01:50:59.194Z,133.63
2023-05-10T01:56:49.918Z,120.43
2023-05-10T01:59:19.762Z,112.80
2023-05-10T02:01:48.976Z,115.40
2023-05-10T02:04:19.315Z,119.25
2023-05-10T02:06:49.024Z,114.70
2023-05-10T02:09:17.303Z,123.28
2023-05-10T02:11:45.272Z,123.03
2023-05-10T02:14:13.305Z,110.05
2023-05-10T02:16:41.660Z,110.20
2023-05-10T02:19:09.926Z,116.15
2023-05-10T02:21:38.567Z,111.45
2023-05-10T02:24:07.202Z,119.40
2023-05-10T02:26:36.295Z,101.45
2023-05-10T02:29:04.519Z,107.53
2023-05-10T02:31:35.924Z,117.93
2023-05-10T02:34:05.069Z,101.25
2023-05-10T02:36:33.356Z,101.03
2023-05-10T02:39:03.110Z,123.75
2023-05-10T02:41:33.361Z,110.20
2023-05-10T02:44:05.330Z,110.07
2023-05-10T02:46:32.853Z,116.63
2023-05-10T02:48:59.709Z,127.05
2023-05-10T02:51:35.800Z,126.97
2023-05-10T02:54:14.642Z,142.82
2023-05-10T02:56:52.775Z,143.98
2023-05-10T02:59:19.738Z,155.43
2023-05-10T03:01:46.847Z,182.30
2023-05-10T03:04:14.326Z,159.77
2023-05-10T03:06:41.594Z,174.73
2023-05-10T03:09:10.440Z,178.25
2023-05-10T03:11:58.319Z,156.15
2023-05-10T03:14:32.857Z,169.90
2023-05-10T03:17:10.294Z,195.82
2023-05-10T03:19:50.813Z,223.52
2023-05-10T03:22:31.572Z,199.23
2023-05-10T03:25:01.269Z,185.30
2023-05-10T03:27:32.150Z,194.35
2023-05-10T03:30:03.516Z,198.70
2023-05-10T03:32:35.424Z,180.52
2023-05-10T03:35:08.900Z,181.48
2023-05-10T03:37:36.870Z,194.02
2023-05-10T03:40:04.705Z,196.52
2023-05-10T03:42:34.193Z,178.20
2023-05-10T03:45:01.055Z,166.45
2023-05-10T03:47:28.080Z,182.95
2023-05-10T03:49:54.904Z,141.32
2023-05-10T03:52:21.754Z,151.70
2023-05-10T03:54:48.817Z,137.57
2023-05-10T03:57:16.113Z,142.67
2023-05-10T03:59:43.024Z,149.65
2023-05-10T04:02:09.970Z,125.22
2023-05-10T04:04:37.225Z,129.77
2023-05-10T04:07:04.620Z,116.80
2023-05-10T04:09:31.689Z,135.40
2023-05-10T04:12:00.018Z,146.13
2023-05-10T04:14:27.126Z,158.98
2023-05-10T04:16:54.013Z,125.40
2023-05-10T04:19:21.416Z,113.55
2023-05-10T04:21:48.374Z,118.07
2023-05-10T04:24:15.845Z,113.00
2023-05-10T04:26:42.693Z,141.60
2023-05-10T04:29:09.857Z,138.88
2023-05-10T04:31:37.406Z,124.63
2023-05-10T04:34:04.280Z,125.38
2023-05-10T04:36:34.328Z,146.48
2023-05-10T04:39:01.204Z,122.35
2023-05-10T04:41:28.141Z,124.10
2023-05-10T04:43:55.154Z,131.65
2023-05-10T04:46:22.030Z,156.82
2023-05-10T04:48:48.901Z,132.02
2023-05-10T04:51:15.874Z,129.68
2023-05-10T04:53:46.468Z,133.57
2023-05-10T04:56:18.340Z,132.77
2023-05-10T04:58:45.456Z,133.10
2023-05-10T05:01:18.506Z,141.38
2023-05-10T05:03:45.404Z,122.43
2023-05-10T05:06:12.343Z,126.38
2023-05-10T05:08:41.374Z,146.25
2023-05-10T05:11:08.136Z,126.22
2023-05-10T05:13:35.096Z,126.38
2023-05-10T05:16:03.743Z,151.90
2023-05-10T05:18:31.085Z,140.73
2023-05-10T05:20:57.891Z,164.00
2023-05-10T05:23:28.074Z,136.68
2023-05-10T05:25:56.253Z,134.90
2023-05-10T05:28:23.209Z,158.50
2023-05-10T05:30:50.002Z,142.35
2023-05-10T05:33:16.901Z,171.80
2023-05-10T05:35:51.524Z,118.88
2023-05-10T05:38:18.557Z,130.10
2023-05-10T05:40:46.540Z,120.35
2023-05-10T05:43:14.638Z,124.10
2023-05-10T05:45:41.636Z,141.43
2023-05-10T05:48:08.475Z,156.25
2023-05-10T05:50:35.357Z,143.15
2023-05-10T05:53:02.327Z,155.70
2023-05-10T05:55:30.674Z,170.57
2023-05-10T05:57:57.462Z,170.55
2023-05-10T06:00:24.829Z,141.38
2023-05-10T06:02:51.915Z,150.38
2023-05-10T06:05:19.885Z,142.98
2023-05-10T06:07:47.059Z,150.77
2023-05-10T06:10:13.902Z,152.23
2023-05-10T06:12:43.498Z,139.50
2023-05-10T06:15:10.985Z,133.13
2023-05-10T06:17:37.861Z,111.10
2023-05-10T06:20:05.124Z,115.60
2023-05-10T06:22:31.987Z,113.97
2023-05-10T06:24:59.098Z,101.38
2023-05-10T06:27:25.968Z,104.00
2023-05-10T06:30:02.036Z,100.55
2023-05-10T06:32:33.060Z,93.40
2023-05-10T06:34:59.897Z,132.38
2023-05-10T06:37:26.741Z,127.63
2023-05-10T06:39:53.503Z,117.85
2023-05-10T06:42:23.262Z,120.30
2023-05-10T06:44:50.135Z,124.43
2023-05-10T06:47:16.909Z,134.32
2023-05-10T06:49:46.808Z,124.68
2023-05-10T06:52:13.660Z,110.53
2023-05-10T06:54:40.462Z,111.15
2023-05-10T06:57:16.111Z,101.93
2023-05-10T06:59:53.551Z,85.32
2023-05-10T07:02:20.331Z,71.18
2023-05-10T07:04:48.385Z,66.88
2023-05-10T07:07:18.187Z,60.13
2023-05-10T07:09:45.922Z,54.67
2023-05-10T07:12:14.677Z,59.00
2023-05-10T07:14:45.095Z,44.28
2023-05-10T07:17:12.007Z,40.60
2023-05-10T07:19:38.841Z,32.33
2023-05-10T07:22:05.696Z,27.45
2023-05-10T07:24:34.065Z,25.48
2023-05-10T07:27:01.114Z,23.33
2023-05-10T07:29:28.319Z,20.30
2023-05-10T07:31:57.935Z,25.20
2023-05-10T07:34:26.610Z,26.50
2023-05-10T07:36:53.944Z,23.17
2023-05-10T07:39:27.446Z,22.83
2023-05-10T07:41:56.046Z,20.27
2023-05-10T07:44:23.047Z,18.63
2023-05-10T07:46:50.211Z,24.17
2023-05-10T07:49:17.214Z,25.58
2023-05-10T07:51:44.359Z,23.63
2023-05-10T07:54:11.253Z,25.05
2023-05-10T07:56:38.150Z,21.73
2023-05-10T07:59:06.078Z,23.30
2023-05-10T08:01:34.313Z,21.50
2023-05-10T08:04:02.825Z,20.95
2023-05-10T08:06:31.020Z,22.58
2023-05-10T08:09:04.400Z,21.83
2023-05-10T08:11:32.451Z,21.30
2023-05-10T08:14:00.686Z,21.02
2023-05-10T08:16:27.761Z,23.25
2023-05-10T08:18:56.436Z,22.75
2023-05-10T08:21:23.600Z,25.17
2023-05-10T08:23:50.894Z,24.52
2023-05-10T08:26:17.944Z,20.98
2023-05-10T08:28:44.923Z,24.40
2023-05-10T08:31:11.925Z,18.13
2023-05-10T08:33:38.831Z,23.33
2023-05-10T08:36:05.745Z,18.00
2023-05-10T08:38:32.590Z,18.98
2023-05-10T08:41:00.596Z,18.88
2023-05-10T08:43:30.209Z,17.90
2023-05-10T08:45:58.214Z,17.13
2023-05-10T08:48:25.919Z,16.33
2023-05-10T08:50:57.597Z,21.05
2023-05-10T08:53:27.633Z,22.27
2023-05-10T08:55:55.022Z,20.13
2023-05-10T08:58:22.032Z,19.15
2023-05-10T09:00:51.939Z,18.27
2023-05-10T09:03:19.328Z,19.35
2023-05-10T09:05:49.258Z,20.00
2023-05-10T09:08:19.913Z,18.95
2023-05-10T09:10:53.290Z,21.58
2023-05-10T09:13:23.014Z,18.65
2023-05-10T09:15:50.486Z,19.70
2023-05-10T09:18:17.599Z,21.50
2023-05-10T09:20:44.497Z,16.90
2023-05-10T09:23:11.436Z,16.23
2023-05-10T09:25:39.744Z,14.82
2023-05-10T09:28:10.716Z,15.50
2023-05-10T09:30:38.006Z,14.25
2023-05-10T09:33:05.096Z,15.15
2023-05-10T09:35:41.232Z,10.48
2023-05-10T09:38:08.195Z,10.70
2023-05-10T09:40:35.077Z,9.35
2023-05-10T09:43:05.337Z,8.80
2023-05-10T09:45:37.808Z,7.72
2023-05-10T09:48:06.393Z,5.85
2023-05-10T09:50:33.495Z,8.93
2023-05-10T09:53:03.863Z,10.13
2023-05-10T09:55:45.889Z,9.02
2023-05-10T09:58:13.945Z,8.85
2023-05-10T10:00:45.651Z,11.35
2023-05-10T10:03:17.773Z,9.35
2023-05-10T10:05:45.552Z,8.82
2023-05-10T10:08:13.720Z,7.72
2023-05-10T10:10:43.887Z,14.60
2023-05-10T10:13:10.756Z,8.27
2023-05-10T10:15:37.865Z,7.30
2023-05-10T10:18:06.599Z,7.78
2023-05-10T10:20:33.699Z,7.63
2023-05-10T10:23:00.654Z,6.40
2023-05-10T10:25:27.730Z,7.55
2023-05-10T10:27:54.623Z,10.10
2023-05-10T10:30:44.650Z,11.73
2023-05-10T10:33:30.540Z,14.27
2023-05-10T10:36:03.686Z,12.40
2023-05-10T10:39:00.325Z,10.27
2023-05-10T10:41:31.838Z,8.63
2023-05-10T10:44:23.396Z,10.82
2023-05-10T10:47:10.247Z,8.75
2023-05-10T10:49:43.196Z,14.35
2023-05-10T10:52:32.209Z,10.38
2023-05-10T10:55:05.177Z,12.45
2023-05-10T10:57:48.406Z,13.00
2023-05-10T11:00:22.424Z,11.63
2023-05-10T11:02:52.617Z,9.70
2023-05-10T11:05:38.140Z,8.50
2023-05-10T11:08:22.913Z,8.57
2023-05-10T11:11:07.773Z,8.25
2023-05-10T11:14:04.366Z,15.10
2023-05-10T11:16:45.097Z,7.05
2023-05-10T11:19:14.320Z,9.52
2023-05-10T11:21:54.742Z,7.20
2023-05-10T11:24:27.892Z,6.97
2023-05-10T11:26:55.104Z,8.55
2023-05-10T11:29:22.191Z,9.18
2023-05-10T11:31:50.598Z,7.00
2023-05-10T11:34:32.217Z,8.90
2023-05-10T11:36:59.492Z,12.05
2023-05-10T11:39:34.454Z,10.88
2023-05-10T11:42:01.511Z,6.90
2023-05-10T11:44:34.515Z,6.38
2023-05-10T11:47:04.568Z,9.63
2023-05-10T11:49:31.585Z,8.80
2023-05-10T11:52:06.563Z,7.68
2023-05-10T11:54:36.181Z,8.05
2023-05-10T11:57:05.593Z,7.40
2023-05-10T11:59:32.626Z,9.27
2023-05-10T12:01:59.641Z,7.63
2023-05-10T12:04:27.324Z,4.70
2023-05-10T12:06:54.262Z,7.07
2023-05-10T12:09:35.520Z,7.93
2023-05-10T12:12:08.457Z,5.85
2023-05-10T12:14:36.792Z,5.95
2023-05-10T12:17:03.858Z,4.97
2023-05-10T12:19:39.312Z,6.22
2023-05-10T12:22:07.154Z,5.20
2023-05-10T12:24:39.251Z,5.80
2023-05-10T12:29:36.174Z,5.70
2023-05-10T12:32:03.522Z,6.57
2023-05-10T12:34:35.264Z,4.35
2023-05-10T12:37:03.008Z,4.82
2023-05-10T12:39:43.452Z,4.82
2023-05-10T12:42:10.828Z,3.47
2023-05-10T12:44:37.612Z,5.47
2023-05-10T12:47:04.410Z,5.00
2023-05-10T12:49:31.263Z,5.15
2023-05-10T12:52:00.413Z,4.35
2023-05-10T12:54:30.382Z,4.82
2023-05-10T12:56:57.148Z,5.82
2023-05-10T12:59:24.018Z,4.78
2023-05-10T13:01:52.728Z,5.60
2023-05-10T13:04:19.683Z,4.35
2023-05-10T13:06:46.641Z,5.50
2023-05-10T13:09:13.394Z,5.72
2023-05-10T13:11:41.096Z,5.13
2023-05-10T13:14:07.905Z,5.70
2023-05-10T13:16:34.781Z,5.53
2023-05-10T13:19:01.546Z,5.57
2023-05-10T13:21:28.798Z,6.20
2023-05-10T13:23:55.620Z,10.00
2023-05-10T13:26:22.345Z,9.38
2023-05-10T13:28:49.740Z,6.32
2023-05-10T13:31:16.691Z,8.65
2023-05-10T13:33:43.712Z,12.30
2023-05-10T13:36:10.699Z,9.23
2023-05-10T13:38:37.700Z,9.70
2023-05-10T13:41:04.659Z,8.15
2023-05-10T13:43:31.640Z,9.48
2023-05-10T13:45:58.431Z,7.82
2023-05-10T13:48:30.824Z,6.93
2023-05-10T13:50:57.566Z,7.18
2023-05-10T13:53:24.621Z,8.80
2023-05-10T13:55:51.709Z,8.82
2023-05-10T13:58:18.541Z,9.73
2023-05-10T14:00:45.246Z,12.80
2023-05-10T14:03:13.235Z,11.73
2023-05-10T14:05:40.176Z,10.50
2023-05-10T14:08:07.255Z,11.68
2023-05-10T14:10:34.209Z,14.23
2023-05-10T14:13:01.170Z,11.98
2023-05-10T14:15:27.996Z,14.20
2023-05-10T14:17:55.157Z,13.52
2023-05-10T14:20:22.184Z,14.35
2023-05-10T14:22:50.131Z,15.48
2023-05-10T14:25:17.160Z,13.55
2023-05-10T14:27:44.328Z,13.55
2023-05-10T14:30:11.633Z,15.02
2023-05-10T14:32:38.659Z,16.42
2023-05-10T14:35:06.951Z,20.63
2023-05-10T14:37:36.070Z,20.38
2023-05-10T14:40:04.995Z,17.17
2023-05-10T14:42:32.326Z,19.00
2023-05-10T14:44:59.241Z,17.42
2023-05-10T14:47:26.471Z,19.40
2023-05-10T14:49:53.330Z,16.23
2023-05-10T14:52:20.228Z,15.27
2023-05-10T14:54:49.162Z,17.85
2023-05-10T14:57:16.181Z,17.98
2023-05-10T14:59:43.133Z,15.85
2023-05-10T15:02:11.418Z,25.30
2023-05-10T15:04:38.921Z,15.13
2023-05-10T15:07:06.687Z,12.90
2023-05-10T15:09:33.466Z,19.30
2023-05-10T15:12:00.793Z,18.58
2023-05-10T15:14:27.550Z,20.05
2023-05-10T15:16:55.565Z,14.02
2023-05-10T15:19:22.316Z,15.70
2023-05-10T15:21:49.127Z,16.20
2023-05-10T15:24:15.974Z,16.08
2023-05-10T15:26:42.923Z,15.43
2023-05-10T15:29:09.704Z,12.02
2023-05-10T15:31:36.963Z,14.43
2023-05-10T15:34:03.935Z,14.98
2023-05-10T15:36:30.765Z,14.57
2023-05-10T15:38:57.661Z,14.82
2023-05-10T15:41:25.716Z,13.30
2023-05-10T15:43:54.175Z,13.00
2023-05-10T15:46:22.135Z,14.18
2023-05-10T15:48:49.016Z,12.20
2023-05-10T15:51:41.598Z,13.18
2023-05-10T15:56:36.157Z,14.13
2023-05-10T15:59:03.704Z,11.02
2023-05-10T16:01:34.457Z,11.75
2023-05-10T16:04:03.075Z,7.55
2023-05-10T16:06:29.854Z,11.95
2023-05-10T16:08:56.697Z,9.07
2023-05-10T16:11:23.657Z,12.18
2023-05-10T16:13:50.716Z,11.77
2023-05-10T16:16:18.227Z,10.45
2023-05-10T16:18:45.195Z,9.23
2023-05-10T16:21:12.068Z,9.82
2023-05-10T16:23:39.318Z,11.38
2023-05-10T16:26:06.085Z,12.68
2023-05-10T16:28:33.043Z,11.68
2023-05-10T16:30:59.889Z,13.50
2023-05-10T16:33:26.912Z,11.93
2023-05-10T16:35:53.845Z,9.50
2023-05-10T16:38:21.821Z,11.70
2023-05-10T16:40:48.856Z,10.73
2023-05-10T16:43:15.856Z,10.45
2023-05-10T16:45:42.786Z,11.45
2023-05-10T16:48:09.741Z,11.27
2023-05-10T16:50:36.678Z,8.98
2023-05-10T16:53:03.560Z,6.80
2023-05-10T16:55:30.755Z,7.35
2023-05-10T16:58:00.500Z,6.38
2023-05-10T17:00:27.656Z,8.25
2023-05-10T17:02:55.081Z,7.97
2023-05-10T17:05:22.794Z,6.70
2023-05-10T17:07:50.833Z,7.55
2023-05-10T17:10:19.242Z,6.68
2023-05-10T17:12:51.892Z,5.25
2023-05-10T17:15:19.426Z,5.07
2023-05-10T17:17:50.193Z,6.80
2023-05-10T17:20:17.134Z,7.28
2023-05-10T17:22:44.066Z,8.10
2023-05-10T17:25:11.297Z,6.35
2023-05-10T17:27:38.097Z,6.22
2023-05-10T17:30:08.060Z,6.30
2023-05-10T17:32:35.068Z,8.00
2023-05-10T17:35:03.839Z,5.88
2023-05-10T17:37:30.953Z,6.95
2023-05-10T17:39:57.846Z,5.38
2023-05-10T17:42:24.606Z,6.20
2023-05-10T17:44:51.403Z,5.38
2023-05-10T17:47:18.644Z,5.78
2023-05-10T17:49:45.512Z,4.97
2023-05-10T17:52:12.310Z,6.82
2023-05-10T17:54:39.174Z,7.03
2023-05-10T17:57:12.101Z,6.20
2023-05-10T17:59:38.838Z,10.65
2023-05-10T18:02:05.867Z,6.25
2023-05-10T18:04:35.530Z,7.30
2023-05-10T18:07:02.825Z,7.82
2023-05-10T18:09:30.003Z,11.25
2023-05-10T18:11:56.906Z,9.68
2023-05-10T18:14:39.101Z,10.68
2023-05-10T18:17:07.841Z,7.45
2023-05-10T18:19:35.025Z,8.30
2023-05-10T18:22:01.972Z,8.30
2023-05-10T18:24:39.688Z,8.50
2023-05-10T18:27:11.268Z,7.97
2023-05-10T18:29:41.264Z,9.35
2023-05-10T18:32:08.189Z,10.05
2023-05-10T18:34:35.309Z,7.78
2023-05-10T18:37:07.360Z,7.68
2023-05-10T18:39:34.734Z,9.35
2023-05-10T18:42:02.191Z,9.77
2023-05-10T18:44:29.397Z,9.02
2023-05-10T18:46:56.613Z,10.50
2023-05-10T18:49:24.088Z,11.27
2023-05-10T18:51:51.244Z,10.10
2023-05-10T18:58:00.815Z,9.40
2023-05-10T19:00:53.798Z,11.20
2023-05-10T19:03:24.649Z,11.20
2023-05-10T19:05:51.603Z,14.15
2023-05-10T19:08:18.803Z,10.18
2023-05-10T19:10:46.041Z,11.63
2023-05-10T19:13:14.863Z,12.90
2023-05-10T19:15:42.025Z,14.60
2023-05-10T19:18:09.761Z,15.93
2023-05-10T19:20:40.221Z,18.50
2023-05-10T19:23:10.374Z,16.05
2023-05-10T19:25:37.431Z,16.83
2023-05-10T19:28:04.670Z,16.35
2023-05-10T19:30:32.148Z,17.00
2023-05-10T19:32:59.350Z,18.15
2023-05-10T19:35:26.364Z,19.95
2023-05-10T19:37:53.690Z,17.33
2023-05-10T19:40:20.627Z,13.65
2023-05-10T19:42:48.102Z,15.40
2023-05-10T19:45:15.761Z,14.20
2023-05-10T19:47:43.380Z,13.70
2023-05-10T19:50:12.270Z,11.63
2023-05-10T19:52:39.346Z,17.25
2023-05-10T19:55:09.998Z,15.70
2023-05-10T19:57:37.476Z,17.95
2023-05-10T20:00:05.102Z,16.45
2023-05-10T20:02:38.045Z,14.70
2023-05-10T20:05:05.186Z,16.77
2023-05-10T20:07:32.075Z,20.55
2023-05-10T20:09:58.943Z,20.35
2023-05-10T20:12:25.820Z,18.95
2023-05-10T20:14:53.079Z,18.85
2023-05-10T20:17:20.102Z,18.70
2023-05-10T20:19:47.058Z,21.63
2023-05-10T20:22:15.217Z,21.00
2023-05-10T20:24:42.031Z,19.50
2023-05-10T20:27:08.942Z,18.85
2023-05-10T20:29:35.875Z,20.55
2023-05-10T20:32:02.890Z,20.63
2023-05-10T20:34:30.922Z,18.92
2023-05-10T20:36:58.558Z,20.50
2023-05-10T20:39:26.071Z,22.88
2023-05-10T20:41:54.680Z,20.50
2023-05-10T20:44:21.663Z,24.45
2023-05-10T20:46:48.590Z,21.80
2023-05-10T20:49:15.581Z,21.48
2023-05-10T20:51:42.598Z,19.02
2023-05-10T20:54:09.492Z,24.67
2023-05-10T20:56:36.287Z,22.02
2023-05-10T20:59:03.137Z,22.95
2023-05-10T21:01:32.185Z,24.83
2023-05-10T21:03:59.166Z,22.70
2023-05-10T21:06:26.280Z,19.10
2023-05-10T21:08:53.146Z,24.63
2023-05-10T21:11:20.149Z,24.40
2023-05-10T21:13:48.158Z,24.45
2023-05-10T21:16:15.147Z,19.33
2023-05-10T21:18:42.205Z,24.10
2023-05-10T21:21:09.063Z,20.45
2023-05-10T21:23:36.058Z,21.35
2023-05-10T21:26:05.944Z,23.08
2023-05-10T21:28:33.003Z,24.08
2023-05-10T21:31:06.697Z,21.52
2023-05-10T21:33:33.611Z,21.10
2023-05-10T21:36:00.738Z,22.17
2023-05-10T21:38:28.572Z,24.13
2023-05-10T21:40:55.721Z,23.27
2023-05-10T21:43:22.629Z,28.25
2023-05-10T21:45:49.554Z,28.45
2023-05-10T21:48:19.136Z,22.27
2023-05-10T21:50:47.849Z,24.67
2023-05-10T21:53:14.878Z,22.70
2023-05-10T21:55:42.022Z,23.67
2023-05-10T21:58:08.901Z,24.70
2023-05-10T22:00:35.836Z,22.85
2023-05-10T22:03:02.894Z,27.92
2023-05-10T22:05:29.905Z,24.60
2023-05-10T22:07:56.862Z,27.40
2023-05-10T22:10:26.621Z,29.08
2023-05-10T22:12:53.717Z,24.50
2023-05-10T22:15:20.581Z,28.45
2023-05-10T22:17:47.492Z,22.85
2023-05-10T22:20:14.733Z,24.92
2023-05-10T22:22:41.777Z,24.35
2023-05-10T22:25:08.949Z,27.70
2023-05-10T22:27:36.617Z,22.17
2023-05-10T22:30:06.528Z,28.45
2023-05-10T22:32:33.545Z,30.92
2023-05-10T22:35:00.529Z,25.88
2023-05-10T22:37:27.646Z,33.08
2023-05-10T22:39:54.539Z,29.40
2023-05-10T22:42:21.390Z,29.63
2023-05-10T22:44:48.325Z,30.88
2023-05-10T22:47:16.328Z,29.90
2023-05-10T22:49:43.682Z,27.90
2023-05-10T22:52:10.989Z,29.02
2023-05-10T22:54:37.925Z,27.15
2023-05-10T22:57:04.932Z,32.65
2023-05-10T22:59:31.893Z,30.48
2023-05-10T23:01:58.850Z,30.23
2023-05-10T23:04:25.976Z,28.42
2023-05-10T23:06:55.908Z,30.02
2023-05-10T23:09:23.031Z,34.03
2023-05-10T23:11:49.857Z,28.75
2023-05-10T23:14:17.400Z,32.72
2023-05-10T23:16:44.540Z,36.90
2023-05-10T23:19:11.497Z,31.33
2023-05-10T23:21:38.806Z,33.65
2023-05-10T23:24:06.353Z,30.77
2023-05-10T23:26:33.206Z,34.38
2023-05-10T23:29:00.789Z,33.38
2023-05-10T23:31:27.924Z,33.13
2023-05-10T23:33:55.002Z,29.45
2023-05-10T23:36:21.897Z,33.35
2023-05-10T23:38:48.738Z,33.67
2023-05-10T23:41:15.640Z,34.13
2023-05-10T23:43:42.479Z,30.67
2023-05-10T23:46:09.374Z,36.15
2023-05-10T23:48:38.196Z,36.05
2023-05-10T23:51:05.228Z,32.22
2023-05-10T23:53:32.028Z,39.53
2023-05-10T23:55:58.980Z,36.30
2023-05-10T23:58:25.945Z,41.15
